sensor_id;sensor_type;location;lat;lon;timestamp;P1;durP1;ratioP1;P2;durP2;ratioP2
71679;SDS011;59512;42.662;23.254;2023-07-31T00:02:21;10.77;;;5.90;;
71679;SDS011;59512;42.662;23.254;2023-07-31T00:04:46;8.53;;;5.63;;
71679;SDS011;59512;42.662;23.254;2023-07-31T00:07:12;7.93;;;5.13;;
71679;SDS011;59512;42.662;23.254;2023-07-31T00:09:38;9.87;;;5.63;;
71679;SDS011;59512;42.662;23.254;2023-07-31T00:12:03;9.07;;;5.63;;
71679;SDS011;59512;42.662;23.254;2023-07-31T00:14:29;9.98;;;5.80;;
71679;SDS011;59512;42.662;23.254;2023-07-31T00:16:54;8.93;;;5.17;;
71679;SDS011;59512;42.662;23.254;2023-07-31T00:19:20;7.63;;;4.90;;
71679;SDS011;59512;42.662;23.254;2023-07-31T00:21:45;9.30;;;5.20;;
71679;SDS011;59512;42.662;23.254;2023-07-31T00:24:10;8.07;;;4.73;;
71679;SDS011;59512;42.662;23.254;2023-07-31T00:26:36;9.88;;;5.53;;
71679;SDS011;59512;42.662;23.254;2023-07-31T00:29:01;7.80;;;5.30;;
71679;SDS011;59512;42.662;23.254;2023-07-31T00:31:26;7.90;;;5.50;;
71679;SDS011;59512;42.662;23.254;2023-07-31T00:33:52;8.13;;;5.67;;
71679;SDS011;59512;42.662;23.254;2023-07-31T00:36:17;9.02;;;5.65;;
71679;SDS011;59512;42.662;23.254;2023-07-31T00:38:43;8.23;;;5.68;;
71679;SDS011;59512;42.662;23.254;2023-07-31T00:41:09;8.77;;;6.23;;
71679;SDS011;59512;42.662;23.254;2023-07-31T00:43:34;8.65;;;6.22;;
71679;SDS011;59512;42.662;23.254;2023-07-31T00:45:59;9.80;;;6.60;;
71679;SDS011;59512;42.662;23.254;2023-07-31T00:48:25;8.97;;;6.20;;
71679;SDS011;59512;42.662;23.254;2023-07-31T00:50:50;9.80;;;6.70;;
71679;SDS011;59512;42.662;23.254;2023-07-31T00:53:16;10.70;;;7.45;;
71679;SDS011;59512;42.662;23.254;2023-07-31T00:55:42;11.50;;;8.70;;
71679;SDS011;59512;42.662;23.254;2023-07-31T00:58:07;11.25;;;8.95;;
71679;SDS011;59512;42.662;23.254;2023-07-31T01:00:33;12.40;;;9.10;;
71679;SDS011;59512;42.662;23.254;2023-07-31T01:02:58;13.07;;;9.57;;
71679;SDS011;59512;42.662;23.254;2023-07-31T01:05:25;14.27;;;11.00;;
71679;SDS011;59512;42.662;23.254;2023-07-31T01:08:08;14.68;;;11.02;;
71679;SDS011;59512;42.662;23.254;2023-07-31T01:10:42;16.08;;;12.57;;
71679;SDS011;59512;42.662;23.254;2023-07-31T01:13:26;17.02;;;12.82;;
71679;SDS011;59512;42.662;23.254;2023-07-31T01:15:53;17.00;;;14.53;;
71679;SDS011;59512;42.662;23.254;2023-07-31T01:18:18;19.17;;;14.48;;
71679;SDS011;59512;42.662;23.254;2023-07-31T01:20:43;19.67;;;15.43;;
71679;SDS011;59512;42.662;23.254;2023-07-31T01:26:13;21.13;;;17.73;;
71679;SDS011;59512;42.662;23.254;2023-07-31T01:28:55;21.75;;;18.42;;
71679;SDS011;59512;42.662;23.254;2023-07-31T01:31:24;24.77;;;20.00;;
71679;SDS011;59512;42.662;23.254;2023-07-31T01:33:51;24.02;;;19.85;;
71679;SDS011;59512;42.662;23.254;2023-07-31T01:36:19;26.67;;;21.77;;
71679;SDS011;59512;42.662;23.254;2023-07-31T01:38:44;26.43;;;21.83;;
71679;SDS011;59512;42.662;23.254;2023-07-31T01:41:10;27.23;;;22.33;;
71679;SDS011;59512;42.662;23.254;2023-07-31T01:43:35;28.93;;;24.17;;
71679;SDS011;59512;42.662;23.254;2023-07-31T01:46:00;29.48;;;24.08;;
71679;SDS011;59512;42.662;23.254;2023-07-31T01:48:26;31.77;;;24.83;;
71679;SDS011;59512;42.662;23.254;2023-07-31T01:50:51;31.77;;;25.93;;
71679;SDS011;59512;42.662;23.254;2023-07-31T01:53:17;29.63;;;23.70;;
71679;SDS011;59512;42.662;23.254;2023-07-31T01:55:42;29.67;;;24.30;;
71679;SDS011;59512;42.662;23.254;2023-07-31T01:58:08;30.50;;;23.90;;
71679;SDS011;59512;42.662;23.254;2023-07-31T02:00:33;29.83;;;24.27;;
71679;SDS011;59512;42.662;23.254;2023-07-31T02:02:59;29.37;;;24.03;;
71679;SDS011;59512;42.662;23.254;2023-07-31T02:05:24;29.02;;;24.50;;
71679;SDS011;59512;42.662;23.254;2023-07-31T02:07:50;28.47;;;23.10;;
71679;SDS011;59512;42.662;23.254;2023-07-31T02:10:16;31.00;;;24.75;;
71679;SDS011;59512;42.662;23.254;2023-07-31T02:12:41;31.17;;;24.90;;
71679;SDS011;59512;42.662;23.254;2023-07-31T02:15:06;28.53;;;23.77;;
71679;SDS011;59512;42.662;23.254;2023-07-31T02:17:32;29.98;;;25.27;;
71679;SDS011;59512;42.662;23.254;2023-07-31T02:19:57;30.63;;;24.63;;
71679;SDS011;59512;42.662;23.254;2023-07-31T02:22:23;32.70;;;24.30;;
71679;SDS011;59512;42.662;23.254;2023-07-31T02:24:48;27.23;;;22.07;;
71679;SDS011;59512;42.662;23.254;2023-07-31T02:27:13;28.53;;;24.13;;
71679;SDS011;59512;42.662;23.254;2023-07-31T02:29:39;28.55;;;23.40;;
71679;SDS011;59512;42.662;23.254;2023-07-31T02:32:04;27.70;;;22.40;;
71679;SDS011;59512;42.662;23.254;2023-07-31T02:34:30;28.87;;;23.53;;
71679;SDS011;59512;42.662;23.254;2023-07-31T02:36:55;27.43;;;22.83;;
71679;SDS011;59512;42.662;23.254;2023-07-31T02:39:21;27.60;;;22.90;;
71679;SDS011;59512;42.662;23.254;2023-07-31T02:41:46;26.27;;;21.50;;
71679;SDS011;59512;42.662;23.254;2023-07-31T02:44:12;28.43;;;23.80;;
71679;SDS011;59512;42.662;23.254;2023-07-31T02:46:39;26.52;;;22.65;;
71679;SDS011;59512;42.662;23.254;2023-07-31T02:49:05;24.85;;;21.10;;
71679;SDS011;59512;42.662;23.254;2023-07-31T02:51:30;29.90;;;23.57;;
71679;SDS011;59512;42.662;23.254;2023-07-31T02:53:55;28.87;;;23.83;;
71679;SDS011;59512;42.662;23.254;2023-07-31T02:56:21;27.47;;;22.73;;
71679;SDS011;59512;42.662;23.254;2023-07-31T02:58:46;29.47;;;22.93;;
71679;SDS011;59512;42.662;23.254;2023-07-31T03:01:12;27.83;;;23.08;;
71679;SDS011;59512;42.662;23.254;2023-07-31T03:03:37;30.47;;;23.50;;
71679;SDS011;59512;42.662;23.254;2023-07-31T03:06:02;27.83;;;23.10;;
71679;SDS011;59512;42.662;23.254;2023-07-31T03:08:28;29.17;;;23.50;;
71679;SDS011;59512;42.662;23.254;2023-07-31T03:10:53;30.47;;;24.00;;
71679;SDS011;59512;42.662;23.254;2023-07-31T03:13:19;26.85;;;22.13;;
71679;SDS011;59512;42.662;23.254;2023-07-31T03:15:44;28.53;;;23.77;;
71679;SDS011;59512;42.662;23.254;2023-07-31T03:18:09;27.57;;;22.77;;
71679;SDS011;59512;42.662;23.254;2023-07-31T03:20:35;28.47;;;23.43;;
71679;SDS011;59512;42.662;23.254;2023-07-31T03:23:00;28.07;;;23.73;;
71679;SDS011;59512;42.662;23.254;2023-07-31T03:25:26;30.00;;;24.23;;
71679;SDS011;59512;42.662;23.254;2023-07-31T03:27:51;28.07;;;22.57;;
71679;SDS011;59512;42.662;23.254;2023-07-31T03:30:17;28.93;;;23.27;;
71679;SDS011;59512;42.662;23.254;2023-07-31T03:32:42;30.70;;;23.57;;
71679;SDS011;59512;42.662;23.254;2023-07-31T03:35:07;28.90;;;23.55;;
71679;SDS011;59512;42.662;23.254;2023-07-31T03:37:33;28.27;;;22.50;;
71679;SDS011;59512;42.662;23.254;2023-07-31T03:39:58;29.63;;;23.57;;
71679;SDS011;59512;42.662;23.254;2023-07-31T03:42:24;31.33;;;24.37;;
71679;SDS011;59512;42.662;23.254;2023-07-31T03:44:49;28.37;;;22.03;;
71679;SDS011;59512;42.662;23.254;2023-07-31T03:47:15;30.77;;;24.70;;
71679;SDS011;59512;42.662;23.254;2023-07-31T03:49:40;33.27;;;24.47;;
71679;SDS011;59512;42.662;23.254;2023-07-31T03:52:06;32.40;;;24.50;;
71679;SDS011;59512;42.662;23.254;2023-07-31T03:54:31;30.35;;;24.05;;
71679;SDS011;59512;42.662;23.254;2023-07-31T03:56:57;33.47;;;24.47;;
71679;SDS011;59512;42.662;23.254;2023-07-31T03:59:22;32.57;;;25.00;;
71679;SDS011;59512;42.662;23.254;2023-07-31T04:01:48;31.93;;;24.20;;
71679;SDS011;59512;42.662;23.254;2023-07-31T04:04:13;29.50;;;22.73;;
71679;SDS011;59512;42.662;23.254;2023-07-31T04:06:38;31.27;;;23.10;;
71679;SDS011;59512;42.662;23.254;2023-07-31T04:09:04;34.30;;;26.47;;
71679;SDS011;59512;42.662;23.254;2023-07-31T04:11:29;29.30;;;23.20;;
71679;SDS011;59512;42.662;23.254;2023-07-31T04:13:55;30.20;;;23.33;;
71679;SDS011;59512;42.662;23.254;2023-07-31T04:16:20;32.07;;;23.87;;
71679;SDS011;59512;42.662;23.254;2023-07-31T04:18:45;29.13;;;21.80;;
71679;SDS011;59512;42.662;23.254;2023-07-31T04:21:11;30.23;;;23.47;;
71679;SDS011;59512;42.662;23.254;2023-07-31T04:23:37;33.37;;;24.97;;
71679;SDS011;59512;42.662;23.254;2023-07-31T04:26:03;32.78;;;23.05;;
71679;SDS011;59512;42.662;23.254;2023-07-31T04:28:28;30.00;;;22.37;;
71679;SDS011;59512;42.662;23.254;2023-07-31T04:30:56;33.00;;;23.65;;
71679;SDS011;59512;42.662;23.254;2023-07-31T04:33:21;30.07;;;22.53;;
71679;SDS011;59512;42.662;23.254;2023-07-31T04:35:50;32.10;;;23.40;;
71679;SDS011;59512;42.662;23.254;2023-07-31T04:38:17;29.63;;;22.77;;
71679;SDS011;59512;42.662;23.254;2023-07-31T04:40:43;30.45;;;22.90;;
71679;SDS011;59512;42.662;23.254;2023-07-31T04:43:09;31.07;;;23.57;;
71679;SDS011;59512;42.662;23.254;2023-07-31T04:45:34;28.20;;;21.45;;
71679;SDS011;59512;42.662;23.254;2023-07-31T04:47:59;30.17;;;22.10;;
71679;SDS011;59512;42.662;23.254;2023-07-31T04:50:25;29.67;;;22.43;;
71679;SDS011;59512;42.662;23.254;2023-07-31T04:52:50;27.17;;;20.83;;
71679;SDS011;59512;42.662;23.254;2023-07-31T04:55:16;28.70;;;20.25;;
71679;SDS011;59512;42.662;23.254;2023-07-31T04:57:41;25.77;;;19.75;;
71679;SDS011;59512;42.662;23.254;2023-07-31T05:00:07;23.13;;;18.97;;
71679;SDS011;59512;42.662;23.254;2023-07-31T05:02:32;24.13;;;19.35;;
71679;SDS011;59512;42.662;23.254;2023-07-31T05:04:58;24.17;;;19.47;;
71679;SDS011;59512;42.662;23.254;2023-07-31T05:07:23;21.13;;;17.30;;
71679;SDS011;59512;42.662;23.254;2023-07-31T05:09:49;23.07;;;18.33;;
71679;SDS011;59512;42.662;23.254;2023-07-31T05:12:14;22.45;;;17.80;;
71679;SDS011;59512;42.662;23.254;2023-07-31T05:14:40;20.57;;;16.83;;
71679;SDS011;59512;42.662;23.254;2023-07-31T05:17:05;21.03;;;16.97;;
71679;SDS011;59512;42.662;23.254;2023-07-31T05:19:30;21.40;;;17.50;;
71679;SDS011;59512;42.662;23.254;2023-07-31T05:21:56;20.42;;;16.60;;
71679;SDS011;59512;42.662;23.254;2023-07-31T05:24:21;21.73;;;17.23;;
71679;SDS011;59512;42.662;23.254;2023-07-31T05:26:47;21.03;;;16.73;;
71679;SDS011;59512;42.662;23.254;2023-07-31T05:29:12;20.30;;;15.67;;
71679;SDS011;59512;42.662;23.254;2023-07-31T05:31:38;17.80;;;14.90;;
71679;SDS011;59512;42.662;23.254;2023-07-31T05:34:03;19.20;;;14.88;;
71679;SDS011;59512;42.662;23.254;2023-07-31T05:36:29;16.53;;;13.70;;
71679;SDS011;59512;42.662;23.254;2023-07-31T05:38:54;16.17;;;13.35;;
71679;SDS011;59512;42.662;23.254;2023-07-31T05:41:20;17.53;;;13.00;;
71679;SDS011;59512;42.662;23.254;2023-07-31T05:43:45;15.60;;;12.63;;
71679;SDS011;59512;42.662;23.254;2023-07-31T05:46:11;14.30;;;11.97;;
71679;SDS011;59512;42.662;23.254;2023-07-31T05:48:37;16.35;;;13.05;;
71679;SDS011;59512;42.662;23.254;2023-07-31T05:51:03;15.05;;;12.25;;
71679;SDS011;59512;42.662;23.254;2023-07-31T05:53:28;15.40;;;11.33;;
71679;SDS011;59512;42.662;23.254;2023-07-31T05:55:54;12.87;;;9.80;;
71679;SDS011;59512;42.662;23.254;2023-07-31T05:58:19;13.32;;;9.20;;
71679;SDS011;59512;42.662;23.254;2023-07-31T06:00:44;11.10;;;8.73;;
71679;SDS011;59512;42.662;23.254;2023-07-31T06:03:10;10.97;;;7.70;;
71679;SDS011;59512;42.662;23.254;2023-07-31T06:05:35;11.03;;;7.60;;
71679;SDS011;59512;42.662;23.254;2023-07-31T06:08:01;10.05;;;7.38;;
71679;SDS011;59512;42.662;23.254;2023-07-31T06:10:26;11.60;;;8.10;;
71679;SDS011;59512;42.662;23.254;2023-07-31T06:12:53;9.77;;;6.05;;
71679;SDS011;59512;42.662;23.254;2023-07-31T06:15:19;8.73;;;5.40;;
71679;SDS011;59512;42.662;23.254;2023-07-31T06:17:44;9.00;;;5.70;;
71679;SDS011;59512;42.662;23.254;2023-07-31T06:20:11;9.23;;;5.70;;
71679;SDS011;59512;42.662;23.254;2023-07-31T06:22:36;7.90;;;5.38;;
71679;SDS011;59512;42.662;23.254;2023-07-31T06:25:02;10.70;;;6.50;;
71679;SDS011;59512;42.662;23.254;2023-07-31T06:27:28;7.90;;;4.83;;
71679;SDS011;59512;42.662;23.254;2023-07-31T06:29:53;8.18;;;5.50;;
71679;SDS011;59512;42.662;23.254;2023-07-31T06:32:18;10.80;;;5.77;;
71679;SDS011;59512;42.662;23.254;2023-07-31T06:34:44;10.23;;;5.63;;
71679;SDS011;59512;42.662;23.254;2023-07-31T06:37:09;7.77;;;5.23;;
71679;SDS011;59512;42.662;23.254;2023-07-31T06:39:35;8.23;;;5.10;;
71679;SDS011;59512;42.662;23.254;2023-07-31T06:42:00;7.25;;;4.55;;
71679;SDS011;59512;42.662;23.254;2023-07-31T06:44:25;8.40;;;4.87;;
71679;SDS011;59512;42.662;23.254;2023-07-31T06:46:51;8.07;;;5.27;;
71679;SDS011;59512;42.662;23.254;2023-07-31T06:49:16;8.07;;;5.33;;
71679;SDS011;59512;42.662;23.254;2023-07-31T06:51:42;8.60;;;4.95;;
71679;SDS011;59512;42.662;23.254;2023-07-31T06:54:08;8.98;;;5.55;;
71679;SDS011;59512;42.662;23.254;2023-07-31T06:56:33;9.20;;;4.85;;
71679;SDS011;59512;42.662;23.254;2023-07-31T06:58:58;7.20;;;3.90;;
71679;SDS011;59512;42.662;23.254;2023-07-31T07:01:24;7.23;;;3.80;;
71679;SDS011;59512;42.662;23.254;2023-07-31T07:03:49;7.00;;;4.20;;
71679;SDS011;59512;42.662;23.254;2023-07-31T07:06:16;6.78;;;3.78;;
71679;SDS011;59512;42.662;23.254;2023-07-31T07:08:42;8.27;;;3.72;;
71679;SDS011;59512;42.662;23.254;2023-07-31T07:11:08;6.73;;;3.47;;
71679;SDS011;59512;42.662;23.254;2023-07-31T07:13:33;5.73;;;3.30;;
71679;SDS011;59512;42.662;23.254;2023-07-31T07:15:59;6.27;;;3.30;;
71679;SDS011;59512;42.662;23.254;2023-07-31T07:18:24;7.78;;;3.55;;
71679;SDS011;59512;42.662;23.254;2023-07-31T07:20:50;6.67;;;3.23;;
71679;SDS011;59512;42.662;23.254;2023-07-31T07:23:17;8.50;;;3.15;;
71679;SDS011;59512;42.662;23.254;2023-07-31T07:25:43;5.83;;;3.10;;
71679;SDS011;59512;42.662;23.254;2023-07-31T07:28:09;6.43;;;3.17;;
71679;SDS011;59512;42.662;23.254;2023-07-31T07:30:34;5.82;;;3.15;;
71679;SDS011;59512;42.662;23.254;2023-07-31T07:33:00;6.90;;;2.70;;
71679;SDS011;59512;42.662;23.254;2023-07-31T07:35:25;8.93;;;3.70;;
71679;SDS011;59512;42.662;23.254;2023-07-31T07:37:51;6.43;;;3.13;;
71679;SDS011;59512;42.662;23.254;2023-07-31T07:40:16;5.85;;;3.20;;
71679;SDS011;59512;42.662;23.254;2023-07-31T07:42:42;5.60;;;3.20;;
71679;SDS011;59512;42.662;23.254;2023-07-31T07:45:07;6.57;;;3.27;;
71679;SDS011;59512;42.662;23.254;2023-07-31T07:47:33;7.28;;;2.90;;
71679;SDS011;59512;42.662;23.254;2023-07-31T07:49:59;7.17;;;3.30;;
71679;SDS011;59512;42.662;23.254;2023-07-31T07:52:24;7.33;;;3.73;;
71679;SDS011;59512;42.662;23.254;2023-07-31T07:54:49;6.35;;;3.30;;
71679;SDS011;59512;42.662;23.254;2023-07-31T07:57:15;7.47;;;3.40;;
71679;SDS011;59512;42.662;23.254;2023-07-31T07:59:40;7.67;;;3.20;;
71679;SDS011;59512;42.662;23.254;2023-07-31T08:02:06;7.28;;;3.42;;
71679;SDS011;59512;42.662;23.254;2023-07-31T08:04:32;7.53;;;3.30;;
71679;SDS011;59512;42.662;23.254;2023-07-31T08:06:57;7.50;;;3.37;;
71679;SDS011;59512;42.662;23.254;2023-07-31T08:09:22;7.10;;;3.33;;
71679;SDS011;59512;42.662;23.254;2023-07-31T08:11:48;6.60;;;3.55;;
71679;SDS011;59512;42.662;23.254;2023-07-31T08:14:13;8.00;;;3.30;;
71679;SDS011;59512;42.662;23.254;2023-07-31T08:16:39;7.67;;;3.33;;
71679;SDS011;59512;42.662;23.254;2023-07-31T08:19:04;5.60;;;2.83;;
71679;SDS011;59512;42.662;23.254;2023-07-31T08:21:30;6.97;;;3.20;;
71679;SDS011;59512;42.662;23.254;2023-07-31T08:23:56;5.37;;;2.77;;
71679;SDS011;59512;42.662;23.254;2023-07-31T08:26:22;5.55;;;2.67;;
71679;SDS011;59512;42.662;23.254;2023-07-31T08:28:47;9.67;;;3.30;;
71679;SDS011;59512;42.662;23.254;2023-07-31T08:31:13;9.70;;;3.30;;
71679;SDS011;59512;42.662;23.254;2023-07-31T08:33:38;6.68;;;2.85;;
71679;SDS011;59512;42.662;23.254;2023-07-31T08:36:05;6.15;;;2.95;;
71679;SDS011;59512;42.662;23.254;2023-07-31T08:38:31;5.63;;;2.90;;
71679;SDS011;59512;42.662;23.254;2023-07-31T08:40:57;5.30;;;2.60;;
71679;SDS011;59512;42.662;23.254;2023-07-31T08:43:22;5.93;;;2.75;;
71679;SDS011;59512;42.662;23.254;2023-07-31T08:45:50;6.45;;;3.00;;
71679;SDS011;59512;42.662;23.254;2023-07-31T08:48:16;6.30;;;2.70;;
71679;SDS011;59512;42.662;23.254;2023-07-31T08:50:42;6.57;;;3.20;;
71679;SDS011;59512;42.662;23.254;2023-07-31T08:53:08;7.10;;;3.00;;
71679;SDS011;59512;42.662;23.254;2023-07-31T08:55:34;5.97;;;2.90;;
71679;SDS011;59512;42.662;23.254;2023-07-31T08:58:00;8.02;;;3.30;;
71679;SDS011;59512;42.662;23.254;2023-07-31T09:00:25;6.65;;;2.92;;
71679;SDS011;59512;42.662;23.254;2023-07-31T09:02:54;5.68;;;3.03;;
71679;SDS011;59512;42.662;23.254;2023-07-31T09:05:23;6.03;;;2.60;;
71679;SDS011;59512;42.662;23.254;2023-07-31T09:07:48;5.85;;;2.70;;
71679;SDS011;59512;42.662;23.254;2023-07-31T09:10:15;5.57;;;2.72;;
71679;SDS011;59512;42.662;23.254;2023-07-31T09:12:40;7.43;;;3.00;;
71679;SDS011;59512;42.662;23.254;2023-07-31T09:15:06;6.13;;;2.90;;
71679;SDS011;59512;42.662;23.254;2023-07-31T09:17:34;5.78;;;3.15;;
71679;SDS011;59512;42.662;23.254;2023-07-31T09:22:39;5.10;;;2.80;;
71679;SDS011;59512;42.662;23.254;2023-07-31T09:25:17;6.67;;;3.27;;
71679;SDS011;59512;42.662;23.254;2023-07-31T09:27:53;7.63;;;3.10;;
71679;SDS011;59512;42.662;23.254;2023-07-31T09:30:25;7.10;;;3.05;;
71679;SDS011;59512;42.662;23.254;2023-07-31T09:32:52;5.53;;;3.00;;
71679;SDS011;59512;42.662;23.254;2023-07-31T09:35:29;7.30;;;3.67;;
71679;SDS011;59512;42.662;23.254;2023-07-31T09:37:57;6.25;;;2.97;;
71679;SDS011;59512;42.662;23.254;2023-07-31T09:40:30;6.28;;;3.08;;
71679;SDS011;59512;42.662;23.254;2023-07-31T09:43:00;6.37;;;3.50;;
71679;SDS011;59512;42.662;23.254;2023-07-31T09:45:27;6.40;;;3.00;;
71679;SDS011;59512;42.662;23.254;2023-07-31T09:47:53;7.03;;;3.28;;
71679;SDS011;59512;42.662;23.254;2023-07-31T09:50:20;6.50;;;3.20;;
71679;SDS011;59512;42.662;23.254;2023-07-31T09:52:46;6.15;;;3.05;;
71679;SDS011;59512;42.662;23.254;2023-07-31T09:55:12;5.33;;;2.93;;
71679;SDS011;59512;42.662;23.254;2023-07-31T09:57:41;6.33;;;2.87;;
71679;SDS011;59512;42.662;23.254;2023-07-31T10:00:09;5.35;;;2.92;;
71679;SDS011;59512;42.662;23.254;2023-07-31T10:02:35;5.88;;;2.88;;
71679;SDS011;59512;42.662;23.254;2023-07-31T10:05:02;5.40;;;2.60;;
71679;SDS011;59512;42.662;23.254;2023-07-31T10:07:28;5.93;;;2.60;;
71679;SDS011;59512;42.662;23.254;2023-07-31T10:09:55;6.88;;;2.67;;
71679;SDS011;59512;42.662;23.254;2023-07-31T10:12:22;4.72;;;2.40;;
71679;SDS011;59512;42.662;23.254;2023-07-31T10:14:56;5.40;;;2.60;;
71679;SDS011;59512;42.662;23.254;2023-07-31T10:17:25;4.70;;;2.10;;
71679;SDS011;59512;42.662;23.254;2023-07-31T10:19:51;5.20;;;2.40;;
71679;SDS011;59512;42.662;23.254;2023-07-31T10:22:18;5.88;;;2.63;;
71679;SDS011;59512;42.662;23.254;2023-07-31T10:24:45;6.47;;;2.50;;
71679;SDS011;59512;42.662;23.254;2023-07-31T10:27:11;6.13;;;2.40;;
71679;SDS011;59512;42.662;23.254;2023-07-31T10:29:40;5.50;;;2.10;;
71679;SDS011;59512;42.662;23.254;2023-07-31T10:32:07;6.20;;;2.25;;
71679;SDS011;59512;42.662;23.254;2023-07-31T10:34:35;5.50;;;2.30;;
71679;SDS011;59512;42.662;23.254;2023-07-31T10:39:54;5.10;;;2.42;;
71679;SDS011;59512;42.662;23.254;2023-07-31T10:42:20;5.10;;;2.28;;
71679;SDS011;59512;42.662;23.254;2023-07-31T10:44:54;4.70;;;2.03;;
71679;SDS011;59512;42.662;23.254;2023-07-31T10:47:22;6.90;;;2.65;;
71679;SDS011;59512;42.662;23.254;2023-07-31T10:49:48;4.90;;;2.40;;
71679;SDS011;59512;42.662;23.254;2023-07-31T10:52:13;6.13;;;2.55;;
71679;SDS011;59512;42.662;23.254;2023-07-31T10:54:39;6.17;;;2.10;;
71679;SDS011;59512;42.662;23.254;2023-07-31T10:57:18;4.70;;;1.90;;
71679;SDS011;59512;42.662;23.254;2023-07-31T10:59:45;4.30;;;1.80;;
71679;SDS011;59512;42.662;23.254;2023-07-31T11:02:23;5.13;;;2.40;;
71679;SDS011;59512;42.662;23.254;2023-07-31T11:05:09;4.82;;;1.95;;
71679;SDS011;59512;42.662;23.254;2023-07-31T11:07:47;5.60;;;2.10;;
71679;SDS011;59512;42.662;23.254;2023-07-31T11:10:17;5.65;;;2.00;;
71679;SDS011;59512;42.662;23.254;2023-07-31T11:12:43;3.93;;;1.80;;
71679;SDS011;59512;42.662;23.254;2023-07-31T11:15:11;4.43;;;1.80;;
71679;SDS011;59512;42.662;23.254;2023-07-31T11:17:39;5.07;;;2.00;;
71679;SDS011;59512;42.662;23.254;2023-07-31T11:20:05;5.47;;;1.90;;
71679;SDS011;59512;42.662;23.254;2023-07-31T11:22:32;5.33;;;1.87;;
71679;SDS011;59512;42.662;23.254;2023-07-31T11:24:59;5.47;;;2.20;;
71679;SDS011;59512;42.662;23.254;2023-07-31T11:27:27;4.50;;;2.00;;
71679;SDS011;59512;42.662;23.254;2023-07-31T11:29:59;4.72;;;1.65;;
71679;SDS011;59512;42.662;23.254;2023-07-31T11:32:25;5.93;;;2.30;;
71679;SDS011;59512;42.662;23.254;2023-07-31T11:34:53;8.10;;;2.53;;
71679;SDS011;59512;42.662;23.254;2023-07-31T11:37:19;5.35;;;2.30;;
71679;SDS011;59512;42.662;23.254;2023-07-31T11:39:58;6.20;;;2.20;;
71679;SDS011;59512;42.662;23.254;2023-07-31T11:42:24;5.53;;;2.78;;
71679;SDS011;59512;42.662;23.254;2023-07-31T11:44:50;5.07;;;2.60;;
71679;SDS011;59512;42.662;23.254;2023-07-31T11:47:15;5.75;;;2.35;;
71679;SDS011;59512;42.662;23.254;2023-07-31T11:49:41;5.33;;;2.77;;
71679;SDS011;59512;42.662;23.254;2023-07-31T11:52:07;5.40;;;2.70;;
71679;SDS011;59512;42.662;23.254;2023-07-31T11:54:32;6.03;;;2.47;;
71679;SDS011;59512;42.662;23.254;2023-07-31T11:56:58;5.23;;;2.50;;
71679;SDS011;59512;42.662;23.254;2023-07-31T11:59:25;6.13;;;3.28;;
71679;SDS011;59512;42.662;23.254;2023-07-31T12:01:51;6.25;;;3.00;;
71679;SDS011;59512;42.662;23.254;2023-07-31T12:04:18;6.32;;;3.28;;
71679;SDS011;59512;42.662;23.254;2023-07-31T12:06:45;6.95;;;3.17;;
71679;SDS011;59512;42.662;23.254;2023-07-31T12:09:11;6.60;;;3.63;;
71679;SDS011;59512;42.662;23.254;2023-07-31T12:11:43;5.95;;;3.53;;
71679;SDS011;59512;42.662;23.254;2023-07-31T12:14:19;6.45;;;3.95;;
71679;SDS011;59512;42.662;23.254;2023-07-31T12:19:48;7.85;;;4.75;;
71679;SDS011;59512;42.662;23.254;2023-07-31T12:22:14;10.55;;;6.40;;
71679;SDS011;59512;42.662;23.254;2023-07-31T12:24:41;8.57;;;5.35;;
71679;SDS011;59512;42.662;23.254;2023-07-31T12:27:12;9.23;;;5.22;;
71679;SDS011;59512;42.662;23.254;2023-07-31T12:29:39;7.38;;;5.15;;
71679;SDS011;59512;42.662;23.254;2023-07-31T12:32:26;8.25;;;4.90;;
71679;SDS011;59512;42.662;23.254;2023-07-31T12:34:53;8.60;;;5.05;;
71679;SDS011;59512;42.662;23.254;2023-07-31T12:37:20;8.90;;;5.32;;
71679;SDS011;59512;42.662;23.254;2023-07-31T12:39:46;8.55;;;5.30;;
71679;SDS011;59512;42.662;23.254;2023-07-31T12:42:11;10.27;;;5.47;;
71679;SDS011;59512;42.662;23.254;2023-07-31T12:44:36;7.70;;;5.30;;
71679;SDS011;59512;42.662;23.254;2023-07-31T12:47:02;8.33;;;5.07;;
71679;SDS011;59512;42.662;23.254;2023-07-31T12:49:29;7.63;;;5.50;;
71679;SDS011;59512;42.662;23.254;2023-07-31T12:51:54;8.20;;;5.60;;
71679;SDS011;59512;42.662;23.254;2023-07-31T12:54:19;9.23;;;5.95;;
71679;SDS011;59512;42.662;23.254;2023-07-31T12:56:45;8.67;;;6.00;;
71679;SDS011;59512;42.662;23.254;2023-07-31T12:59:10;9.60;;;6.50;;
71679;SDS011;59512;42.662;23.254;2023-07-31T13:01:36;8.50;;;6.43;;
71679;SDS011;59512;42.662;23.254;2023-07-31T13:04:01;8.50;;;5.22;;
71679;SDS011;59512;42.662;23.254;2023-07-31T13:06:27;9.30;;;6.10;;
71679;SDS011;59512;42.662;23.254;2023-07-31T13:08:52;15.63;;;7.20;;
71679;SDS011;59512;42.662;23.254;2023-07-31T13:11:17;9.13;;;6.90;;
71679;SDS011;59512;42.662;23.254;2023-07-31T13:13:43;8.83;;;5.90;;
71679;SDS011;59512;42.662;23.254;2023-07-31T13:16:08;8.83;;;5.83;;
71679;SDS011;59512;42.662;23.254;2023-07-31T13:18:33;7.72;;;5.25;;
71679;SDS011;59512;42.662;23.254;2023-07-31T13:20:59;7.10;;;4.90;;
71679;SDS011;59512;42.662;23.254;2023-07-31T13:23:24;8.23;;;5.80;;
71679;SDS011;59512;42.662;23.254;2023-07-31T13:25:50;7.17;;;4.83;;
71679;SDS011;59512;42.662;23.254;2023-07-31T13:28:15;7.00;;;4.80;;
71679;SDS011;59512;42.662;23.254;2023-07-31T13:30:40;7.25;;;4.60;;
71679;SDS011;59512;42.662;23.254;2023-07-31T13:33:06;6.60;;;4.07;;
71679;SDS011;59512;42.662;23.254;2023-07-31T13:35:31;6.87;;;4.43;;
71679;SDS011;59512;42.662;23.254;2023-07-31T13:37:57;7.67;;;4.10;;
71679;SDS011;59512;42.662;23.254;2023-07-31T13:40:22;6.40;;;3.97;;
71679;SDS011;59512;42.662;23.254;2023-07-31T13:42:48;7.88;;;4.40;;
71679;SDS011;59512;42.662;23.254;2023-07-31T13:45:13;6.23;;;4.20;;
71679;SDS011;59512;42.662;23.254;2023-07-31T13:47:39;8.00;;;4.68;;
71679;SDS011;59512;42.662;23.254;2023-07-31T13:50:05;6.80;;;4.20;;
71679;SDS011;59512;42.662;23.254;2023-07-31T13:52:30;7.07;;;4.13;;
71679;SDS011;59512;42.662;23.254;2023-07-31T13:54:56;6.97;;;4.15;;
71679;SDS011;59512;42.662;23.254;2023-07-31T13:57:21;6.37;;;4.30;;
71679;SDS011;59512;42.662;23.254;2023-07-31T13:59:48;8.85;;;4.80;;
71679;SDS011;59512;42.662;23.254;2023-07-31T14:02:13;7.10;;;4.77;;
71679;SDS011;59512;42.662;23.254;2023-07-31T14:04:39;8.27;;;4.63;;
71679;SDS011;59512;42.662;23.254;2023-07-31T14:07:05;6.97;;;4.70;;
71679;SDS011;59512;42.662;23.254;2023-07-31T14:09:30;7.57;;;4.47;;
71679;SDS011;59512;42.662;23.254;2023-07-31T14:11:56;7.63;;;5.20;;
71679;SDS011;59512;42.662;23.254;2023-07-31T14:14:21;6.18;;;4.00;;
71679;SDS011;59512;42.662;23.254;2023-07-31T14:16:47;8.37;;;4.37;;
71679;SDS011;59512;42.662;23.254;2023-07-31T14:19:12;6.30;;;4.23;;
71679;SDS011;59512;42.662;23.254;2023-07-31T14:21:38;7.13;;;4.10;;
71679;SDS011;59512;42.662;23.254;2023-07-31T14:24:03;7.47;;;4.30;;
71679;SDS011;59512;42.662;23.254;2023-07-31T14:26:29;9.77;;;4.40;;
71679;SDS011;59512;42.662;23.254;2023-07-31T14:28:54;8.77;;;4.80;;
71679;SDS011;59512;42.662;23.254;2023-07-31T14:31:20;7.15;;;3.80;;
71679;SDS011;59512;42.662;23.254;2023-07-31T14:33:45;7.07;;;3.80;;